Overview Statistics Trail Chart Weather Telemetry Raw packets
 

This is the latest recevied weather packets stored in our database for station/object KF7SOJ. If no packets are shown the sender has not sent any weather packets the latest 10 day(s).

<< 91 92 93 94 95 96 97 >>
Time Temp. Humidity Pressure Rain* Wind** Luminosity Snow
1787939630 27.22° C 35% 932.3 hPa 0 mm - 195 W/m² -
1787939326 27.22° C 36% 932.1 hPa 0 mm - 250 W/m² -
1787939021 26.67° C 38% 932.2 hPa 0 mm - 268 W/m² -
1787938719 25.56° C 42% 932.3 hPa 0 mm - 284 W/m² -
1787938416 25° C 43% 932.3 hPa 0 mm - 239 W/m² -
1787938111 25° C 44% 932.1 hPa 0 mm - 223 W/m² -
1787937806 24.44° C 46% 932.6 hPa 0 mm - 201 W/m² -
1787937502 24.44° C 48% 932.4 hPa 0 mm - 158 W/m² -
1787937198 24.44° C 48% 932.4 hPa 0 mm - 111 W/m² -
1787936898 24.44° C 48% 932.3 hPa 0 mm - 104 W/m² -
1787936598 24.44° C 49% 932.3 hPa 0 mm - 134 W/m² -
1787936296 24.44° C 49% 932.3 hPa 0 mm - 137 W/m² -
1787935993 24.44° C 48% 932.2 hPa 0 mm - 125 W/m² -
1787935688 23.89° C 47% 932.2 hPa 0 mm - 106 W/m² -
1787935384 24.44° C 48% 931.8 hPa 0 mm - 115 W/m² -
1787935081 24.44° C 46% 931.9 hPa 0 mm - 115 W/m² -
1787934775 25° C 45% 931.9 hPa 0 mm - 120 W/m² -
1787934474 24.44° C 46% 931.9 hPa 0 mm - 170 W/m² -
1787934169 23.89° C 48% 931.8 hPa 0 mm - 207 W/m² -
1787933868 23.89° C 48% 931.7 hPa 0 mm - 254 W/m² -
1787933562 23.33° C 51% 931.6 hPa 0 mm - 285 W/m² -
1787933258 23.33° C 53% 931.6 hPa 0 mm - 279 W/m² -
1787932957 22.78° C 53% 931.7 hPa 0 mm - 255 W/m² -
1787932651 22.78° C 53% 931.6 hPa 0 mm - 233 W/m² -
1787932351 22.78° C 50% 931.7 hPa 0 mm - 201 W/m² -

* Rain latest hour (hover to see other rain measurements)
** Current wind speed in m/s (hover to see current wind gust speed)